Time;durP1;ratioP1;P1;durP2;ratioP2;P2;SDS_P1;SDS_P2;PMS_P1;PMS_P2;Temp;Humidity;BMP_temperature;BMP_pressure;BME280_temperature;BME280_humidity;BME280_pressure;Samples;Min_cycle;Max_cycle;Signal;HPM_P1;HPM_P2
2022/04/27 00:02:14;;;;;;;14.93;11.57;;;15.40;27.00;;;;;;5071374;28;20039;-39
2022/04/27 00:04:39;;;;;;;14.88;12.10;;;15.40;27.20;;;;;;5072251;28;20028;-39
2022/04/27 00:07:07;;;;;;;16.08;11.75;;;15.40;27.20;;;;;;5071157;28;20427;-39
2022/04/27 00:09:33;;;;;;;15.85;12.02;;;15.30;27.40;;;;;;5072178;28;20052;-40
2022/04/27 00:12:01;;;;;;;14.57;11.02;;;15.30;27.70;;;;;;5073193;28;20021;-40
2022/04/27 00:14:31;;;;;;;14.30;11.77;;;15.30;28.00;;;;;;5076335;28;20027;-40
2022/04/27 00:16:57;;;;;;;14.60;11.48;;;15.30;28.20;;;;;;5073833;28;20033;-40
2022/04/27 00:19:24;;;;;;;17.42;12.05;;;15.30;27.90;;;;;;5075337;28;20025;-40
2022/04/27 00:21:50;;;;;;;13.55;11.60;;;15.30;27.80;;;;;;5065406;28;20426;-40
2022/04/27 00:24:16;;;;;;;15.57;11.30;;;15.30;28.00;;;;;;5075821;28;20039;-39
2022/04/27 00:26:41;;;;;;;15.85;12.75;;;15.30;28.00;;;;;;5074861;28;20085;-39
2022/04/27 00:29:07;;;;;;;14.05;12.02;;;15.20;28.20;;;;;;5076031;28;20039;-39
2022/04/27 00:31:33;;;;;;;16.80;11.77;;;15.20;28.20;;;;;;5074804;28;20035;-39
2022/04/27 00:34:00;;;;;;;18.48;12.40;;;15.20;28.30;;;;;;5075609;28;20048;-39
2022/04/27 00:36:27;;;;;;;13.05;10.98;;;15.20;28.40;;;;;;5069813;28;20120;-39
2022/04/27 00:38:53;;;;;;;16.95;11.73;;;15.20;28.30;;;;;;5075135;28;20074;-39
2022/04/27 00:41:18;;;;;;;15.13;11.75;;;15.20;28.10;;;;;;5061313;28;20032;-40
2022/04/27 00:43:44;;;;;;;14.40;11.85;;;15.20;28.10;;;;;;5075587;28;20420;-39
2022/04/27 00:46:10;;;;;;;12.10;10.80;;;15.10;28.40;;;;;;5074434;28;20051;-40
2022/04/27 00:48:39;;;;;;;13.82;11.68;;;15.10;28.70;;;;;;5074150;28;20074;-40
2022/04/27 00:51:05;;;;;;;14.45;11.02;;;15.10;28.40;;;;;;5073706;28;20039;-40
2022/04/27 00:53:31;;;;;;;14.52;11.25;;;15.10;28.50;;;;;;5075449;28;20032;-40
2022/04/27 00:56:01;;;;;;;14.73;10.98;;;15.10;28.50;;;;;;5074799;28;20104;-40
2022/04/27 00:58:27;;;;;;;14.10;11.20;;;15.10;28.70;;;;;;5073068;28;20462;-39
2022/04/27 01:00:54;;;;;;;15.05;11.90;;;15.10;28.50;;;;;;5074637;28;20024;-40
2022/04/27 01:03:20;;;;;;;18.35;12.40;;;15.10;28.80;;;;;;5075507;28;20027;-39
2022/04/27 01:05:49;;;;;;;14.75;11.57;;;15.00;28.90;;;;;;5074150;28;20036;-40
2022/04/27 01:08:21;;;;;;;15.65;11.77;;;15.00;28.60;;;;;;5075148;28;20028;-40
2022/04/27 01:10:48;;;;;;;16.77;12.77;;;15.00;28.90;;;;;;5074210;28;20021;-39
2022/04/27 01:13:16;;;;;;;20.30;13.73;;;15.10;28.60;;;;;;5074250;28;20147;-39
2022/04/27 01:15:42;;;;;;;17.25;12.73;;;15.00;28.50;;;;;;5073989;28;20031;-40
2022/04/27 01:18:10;;;;;;;19.33;12.70;;;15.00;28.50;;;;;;5075126;28;20099;-40
2022/04/27 01:20:44;;;;;;;14.15;12.68;;;14.90;28.70;;;;;;5072294;28;20504;-39
2022/04/27 01:23:13;;;;;;;14.60;13.13;;;14.90;28.80;;;;;;5073378;28;20508;-40
2022/04/27 01:25:56;;;;;;;14.43;13.02;;;14.90;29.10;;;;;;5073471;28;20032;-39
2022/04/27 01:28:29;;;;;;;18.67;13.63;;;14.90;29.40;;;;;;5073927;28;20504;-40
2022/04/27 01:31:00;;;;;;;14.63;13.02;;;14.80;29.30;;;;;;5073290;28;20055;-40
2022/04/27 01:33:26;;;;;;;18.70;13.05;;;14.90;29.20;;;;;;5073793;28;20037;-39
2022/04/27 01:35:52;;;;;;;16.17;12.82;;;14.80;29.20;;;;;;5087266;28;20027;-39
2022/04/27 01:38:18;;;;;;;16.75;13.52;;;14.90;29.00;;;;;;5073959;28;20020;-39
2022/04/27 01:40:48;;;;;;;15.77;13.02;;;14.80;28.90;;;;;;5072848;28;20397;-39
2022/04/27 01:43:15;;;;;;;21.38;13.30;;;14.80;29.20;;;;;;5072383;28;20485;-40
2022/04/27 01:45:43;;;;;;;16.40;13.88;;;14.80;29.00;;;;;;5069933;28;20039;-40
2022/04/27 01:48:10;;;;;;;16.67;13.05;;;14.70;29.30;;;;;;5053559;28;20542;-40
2022/04/27 01:50:36;;;;;;;15.73;13.05;;;14.70;29.40;;;;;;5055728;28;20143;-40
2022/04/27 01:55:47;;;;;;;19.63;13.00;;;14.60;29.30;;;;;;5073180;28;20519;-39
2022/04/27 01:58:13;;;;;;;18.35;12.35;;;14.70;29.30;;;;;;5073156;28;20032;-39
2022/04/27 02:00:38;;;;;;;15.48;11.73;;;14.70;29.20;;;;;;5072165;28;20040;-39
2022/04/27 02:03:05;;;;;;;15.00;12.52;;;14.70;29.10;;;;;;5073214;28;20031;-39
2022/04/27 02:05:31;;;;;;;16.23;12.75;;;14.60;29.40;;;;;;5072199;28;20032;-40
2022/04/27 02:07:57;;;;;;;17.25;12.63;;;14.70;29.50;;;;;;5072969;28;20024;-40
2022/04/27 02:10:22;;;;;;;17.83;12.70;;;14.60;29.40;;;;;;5088036;28;20024;-40
2022/04/27 02:12:48;;;;;;;15.27;11.95;;;14.60;29.30;;;;;;5072624;28;20055;-40
2022/04/27 02:15:14;;;;;;;13.05;11.63;;;14.60;29.30;;;;;;5071353;28;20099;-40
2022/04/27 02:17:40;;;;;;;14.40;12.07;;;14.70;29.50;;;;;;5072109;28;20028;-40
2022/04/27 02:20:06;;;;;;;14.90;12.05;;;14.60;29.70;;;;;;5072624;28;20021;-39
2022/04/27 02:22:34;;;;;;;17.02;12.65;;;14.50;29.90;;;;;;5071771;28;20075;-39
2022/04/27 02:25:01;;;;;;;15.65;11.85;;;14.60;29.60;;;;;;5072831;28;20028;-40
2022/04/27 02:27:27;;;;;;;13.70;11.88;;;14.70;29.50;;;;;;5072406;28;20434;-40
2022/04/27 02:29:53;;;;;;;14.95;11.95;;;14.50;29.80;;;;;;5072049;28;20334;-40
2022/04/27 02:32:19;;;;;;;14.75;10.82;;;14.50;29.80;;;;;;5072746;28;20074;-40
2022/04/27 02:34:45;;;;;;;15.88;11.93;;;14.50;29.50;;;;;;5072365;28;20044;-40
2022/04/27 02:37:10;;;;;;;16.75;10.77;;;14.50;29.70;;;;;;5072547;28;20028;-40
2022/04/27 02:39:36;;;;;;;13.35;11.18;;;14.50;29.70;;;;;;5072026;28;20031;-40
2022/04/27 02:42:02;;;;;;;16.38;11.40;;;14.60;29.50;;;;;;5072525;28;20048;-40
2022/04/27 02:44:27;;;;;;;12.38;10.57;;;14.50;29.70;;;;;;5071654;28;20393;-40
2022/04/27 02:46:53;;;;;;;14.15;10.63;;;14.50;29.70;;;;;;5072107;28;20054;-40
2022/04/27 02:52:03;;;;;;;12.20;10.60;;;14.40;29.60;;;;;;5071937;28;20121;-39
2022/04/27 02:54:29;;;;;;;15.15;11.60;;;14.50;29.50;;;;;;5073416;28;20021;-39
2022/04/27 02:56:54;;;;;;;13.77;11.10;;;14.40;29.50;;;;;;5070311;28;20039;-39
2022/04/27 02:59:20;;;;;;;12.85;10.90;;;14.40;29.70;;;;;;5072897;28;20020;-39
2022/04/27 03:01:46;;;;;;;16.30;10.23;;;14.40;29.60;;;;;;5071904;28;20508;-39
2022/04/27 03:04:12;;;;;;;12.43;10.70;;;14.40;29.70;;;;;;5072936;28;20483;-39
2022/04/27 03:06:38;;;;;;;14.30;10.65;;;14.40;29.70;;;;;;5071867;28;20082;-39
2022/04/27 03:09:03;;;;;;;12.13;10.00;;;14.40;29.80;;;;;;5072746;28;20331;-39
2022/04/27 03:11:29;;;;;;;13.82;10.73;;;14.30;29.80;;;;;;5071292;28;20031;-39
2022/04/27 03:13:55;;;;;;;16.42;10.90;;;14.40;29.50;;;;;;5073103;28;20052;-39
2022/04/27 03:16:20;;;;;;;11.50;9.85;;;14.30;29.20;;;;;;5071680;28;20020;-40
2022/04/27 03:18:46;;;;;;;13.18;10.38;;;14.30;29.00;;;;;;5072516;28;20051;-40
2022/04/27 03:21:12;;;;;;;11.35;9.43;;;14.30;29.40;;;;;;5071535;28;20020;-40
2022/04/27 03:23:38;;;;;;;12.32;9.73;;;14.30;29.00;;;;;;5072557;28;20021;-40
2022/04/27 03:26:05;;;;;;;12.10;8.40;;;14.30;28.80;;;;;;5072048;28;20044;-39
2022/04/27 03:28:30;;;;;;;10.48;8.55;;;14.30;28.30;;;;;;5072307;28;20078;-39
2022/04/27 03:30:56;;;;;;;8.70;7.78;;;14.30;27.90;;;;;;5072625;28;20020;-39
2022/04/27 03:33:22;;;;;;;11.20;7.75;;;14.30;27.80;;;;;;5071578;28;20037;-40
2022/04/27 03:35:48;;;;;;;10.60;7.75;;;14.30;27.40;;;;;;5072381;28;20039;-39
2022/04/27 03:38:18;;;;;;;8.60;7.03;;;14.30;27.30;;;;;;5069995;28;20028;-39
2022/04/27 03:40:46;;;;;;;10.43;7.13;;;14.30;27.00;;;;;;5071734;28;20024;-39
2022/04/27 03:43:13;;;;;;;11.05;6.75;;;14.20;27.00;;;;;;5071694;28;20060;-39
2022/04/27 03:45:38;;;;;;;9.07;6.82;;;14.30;27.00;;;;;;5072148;28;20029;-40
2022/04/27 03:48:04;;;;;;;6.85;6.15;;;14.20;26.30;;;;;;5071549;28;20074;-39
2022/04/27 03:50:30;;;;;;;7.70;6.20;;;14.20;26.60;;;;;;5070108;28;20028;-39
2022/04/27 03:52:55;;;;;;;7.38;5.90;;;14.20;26.60;;;;;;5069134;28;20017;-39
2022/04/27 03:55:21;;;;;;;6.15;5.55;;;14.20;26.60;;;;;;5072485;28;20107;-39
2022/04/27 03:57:47;;;;;;;6.78;5.57;;;14.10;26.50;;;;;;5071332;28;20028;-39
2022/04/27 04:00:13;;;;;;;10.05;5.70;;;14.10;25.70;;;;;;5072094;28;20469;-39
2022/04/27 04:02:39;;;;;;;6.80;5.38;;;14.20;25.90;;;;;;5072799;28;20027;-39
2022/04/27 04:05:06;;;;;;;7.38;6.28;;;14.10;25.80;;;;;;5072097;28;20028;-39
2022/04/27 04:07:32;;;;;;;6.68;5.32;;;14.10;25.30;;;;;;5072196;28;20083;-39
2022/04/27 04:09:58;;;;;;;7.07;5.68;;;14.10;25.10;;;;;;5070907;28;20028;-39
2022/04/27 04:12:23;;;;;;;6.78;5.10;;;14.20;24.90;;;;;;5066831;28;20044;-39
2022/04/27 04:14:50;;;;;;;9.98;5.60;;;14.10;24.80;;;;;;5052232;28;20025;-39
2022/04/27 04:17:16;;;;;;;6.75;6.10;;;14.10;24.90;;;;;;5052310;28;20198;-39
2022/04/27 04:19:42;;;;;;;9.40;6.82;;;14.10;25.20;;;;;;5051968;28;20021;-39
2022/04/27 04:22:08;;;;;;;10.40;6.38;;;14.10;25.30;;;;;;5050758;28;20104;-39
2022/04/27 04:24:34;;;;;;;8.57;7.47;;;14.00;25.50;;;;;;5052289;28;20458;-39
2022/04/27 04:29:43;;;;;;;10.00;6.88;;;14.00;25.60;;;;;;5051557;28;20032;-39
2022/04/27 04:32:09;;;;;;;11.35;7.22;;;14.00;25.20;;;;;;5050535;28;20021;-40
2022/04/27 04:34:35;;;;;;;9.38;7.57;;;14.00;25.30;;;;;;5056625;28;20047;-39
2022/04/27 04:37:01;;;;;;;8.75;7.07;;;14.00;25.10;;;;;;5071801;28;20036;-39
2022/04/27 04:39:27;;;;;;;8.52;7.07;;;14.00;24.90;;;;;;5056842;28;20048;-39
2022/04/27 04:41:53;;;;;;;9.32;7.80;;;14.00;24.80;;;;;;5051546;28;20462;-39
2022/04/27 04:44:18;;;;;;;11.20;7.85;;;14.00;24.90;;;;;;5051441;28;20466;-39
2022/04/27 04:46:45;;;;;;;12.40;7.85;;;14.00;24.70;;;;;;5051713;28;20021;-40
2022/04/27 04:49:11;;;;;;;11.38;8.85;;;14.00;24.80;;;;;;5051853;28;20021;-40
2022/04/27 04:51:36;;;;;;;8.88;7.97;;;13.90;24.70;;;;;;5051697;28;20556;-40
2022/04/27 04:54:03;;;;;;;10.98;7.47;;;14.00;24.70;;;;;;5051711;28;20026;-40
2022/04/27 04:56:29;;;;;;;11.77;7.10;;;14.00;24.80;;;;;;5051722;28;20021;-39
2022/04/27 04:58:55;;;;;;;8.77;7.60;;;14.00;24.80;;;;;;5053407;28;20036;-40
2022/04/27 05:01:21;;;;;;;13.05;8.02;;;14.00;24.80;;;;;;5055328;28;20028;-40
2022/04/27 05:03:47;;;;;;;9.50;7.80;;;14.00;25.00;;;;;;5069345;28;20020;-40
2022/04/27 05:06:14;;;;;;;10.02;7.75;;;14.00;25.00;;;;;;5073723;28;20032;-40
2022/04/27 05:08:39;;;;;;;13.95;8.70;;;14.10;25.10;;;;;;5073718;28;20017;-40
2022/04/27 05:11:05;;;;;;;10.18;7.90;;;13.90;25.20;;;;;;5073862;28;20070;-40
2022/04/27 05:13:34;;;;;;;8.15;7.22;;;14.00;24.90;;;;;;5074216;28;20096;-41
2022/04/27 05:15:59;;;;;;;11.10;7.45;;;14.10;24.80;;;;;;5074129;28;20036;-40
2022/04/27 05:18:25;;;;;;;9.63;8.57;;;14.00;24.90;;;;;;5073885;28;20035;-40
2022/04/27 05:20:50;;;;;;;10.40;7.88;;;14.10;24.80;;;;;;5073886;28;20029;-40
2022/04/27 05:23:16;;;;;;;11.73;6.93;;;14.00;24.70;;;;;;5073994;28;20464;-40
2022/04/27 05:25:42;;;;;;;11.52;7.72;;;14.00;24.30;;;;;;5074202;28;20044;-40
2022/04/27 05:28:08;;;;;;;10.45;6.70;;;14.10;24.10;;;;;;5073882;28;20473;-40
2022/04/27 05:33:18;;;;;;;13.00;7.10;;;14.00;24.10;;;;;;5074685;28;20043;-40
2022/04/27 05:35:44;;;;;;;7.75;6.93;;;14.10;24.40;;;;;;5074714;28;20024;-40
2022/04/27 05:38:11;;;;;;;9.60;7.53;;;14.10;24.40;;;;;;5074343;28;20480;-40
2022/04/27 05:40:43;;;;;;;9.98;7.15;;;14.10;24.40;;;;;;5074411;28;20028;-40
2022/04/27 05:43:11;;;;;;;9.23;6.50;;;14.00;24.20;;;;;;5074421;28;20028;-40
2022/04/27 05:45:37;;;;;;;9.60;6.75;;;14.00;24.00;;;;;;5074184;28;20032;-40
2022/04/27 05:48:03;;;;;;;10.52;6.70;;;14.10;24.20;;;;;;5074170;28;20024;-40
2022/04/27 05:50:29;;;;;;;8.43;6.72;;;14.10;24.10;;;;;;5074138;28;20021;-40
2022/04/27 05:52:56;;;;;;;9.18;6.75;;;14.10;24.00;;;;;;5074136;28;20488;-39
2022/04/27 05:55:22;;;;;;;8.30;6.20;;;14.20;23.70;;;;;;5074033;28;20027;-39
2022/04/27 05:57:49;;;;;;;11.38;7.82;;;14.10;23.50;;;;;;5073850;28;20027;-39
2022/04/27 06:00:16;;;;;;;8.25;6.80;;;14.10;23.30;;;;;;5073973;28;20142;-40
2022/04/27 06:02:42;;;;;;;11.68;6.88;;;14.10;23.30;;;;;;5074183;28;20024;-39
2022/04/27 06:05:09;;;;;;;10.45;7.18;;;14.10;23.10;;;;;;5073828;28;20068;-39
2022/04/27 06:07:36;;;;;;;9.45;6.47;;;14.10;23.10;;;;;;5072407;28;20051;-39
2022/04/27 06:10:11;;;;;;;9.82;7.43;;;14.00;23.20;;;;;;5073615;28;20035;-39
2022/04/27 06:12:47;;;;;;;8.82;7.78;;;14.10;22.40;;;;;;5074015;28;20037;-40
2022/04/27 06:15:14;;;;;;;11.10;7.38;;;14.10;22.80;;;;;;5068974;28;20019;-39
2022/04/27 06:17:40;;;;;;;8.65;6.88;;;14.20;23.00;;;;;;5072823;28;20025;-39
2022/04/27 06:20:06;;;;;;;11.38;7.85;;;14.20;23.10;;;;;;5072265;28;20095;-39
2022/04/27 06:22:32;;;;;;;8.68;7.40;;;14.20;23.10;;;;;;5073379;28;20028;-39
2022/04/27 06:24:57;;;;;;;10.70;7.97;;;14.30;23.00;;;;;;5072630;28;20044;-39
2022/04/27 06:27:23;;;;;;;15.45;7.20;;;14.30;23.10;;;;;;5072598;28;20521;-40
2022/04/27 06:29:48;;;;;;;8.43;7.15;;;14.30;22.60;;;;;;5073571;28;20056;-40
2022/04/27 06:32:14;;;;;;;12.63;7.88;;;14.30;22.70;;;;;;5072803;28;20070;-40
2022/04/27 06:34:40;;;;;;;9.35;7.05;;;14.30;22.50;;;;;;5073293;28;20528;-40
2022/04/27 06:37:05;;;;;;;9.88;7.30;;;14.30;22.70;;;;;;5072611;28;20028;-40
2022/04/27 06:39:31;;;;;;;13.60;8.60;;;14.20;22.60;;;;;;5070382;28;20107;-40
2022/04/27 06:41:57;;;;;;;13.38;8.25;;;14.30;22.20;;;;;;5071662;28;20111;-41
2022/04/27 06:44:22;;;;;;;14.13;9.50;;;14.30;22.70;;;;;;5072914;28;20154;-40
2022/04/27 06:46:48;;;;;;;15.25;9.93;;;14.40;22.70;;;;;;5072512;28;20056;-40
2022/04/27 06:49:14;;;;;;;15.48;10.93;;;14.40;23.00;;;;;;5072143;28;20059;-39
2022/04/27 06:51:39;;;;;;;14.52;10.50;;;14.30;23.50;;;;;;5071249;28;20028;-40
2022/04/27 06:54:05;;;;;;;11.90;10.57;;;14.40;23.50;;;;;;5071798;28;20024;-40
2022/04/27 06:56:31;;;;;;;12.32;9.50;;;14.50;23.70;;;;;;5072719;28;20048;-40
2022/04/27 06:58:57;;;;;;;17.48;12.38;;;14.50;23.60;;;;;;5073031;28;20021;-40
2022/04/27 07:01:22;;;;;;;15.02;12.10;;;14.40;23.90;;;;;;5073170;28;20437;-40
2022/04/27 07:03:54;;;;;;;19.25;12.57;;;14.50;24.20;;;;;;5073196;28;20526;-39
2022/04/27 07:06:21;;;;;;;22.08;12.77;;;14.50;24.50;;;;;;5072791;28;20102;-39
2022/04/27 07:08:47;;;;;;;17.10;12.00;;;14.60;24.60;;;;;;5065373;28;20028;-40
2022/04/27 07:11:13;;;;;;;14.98;11.68;;;14.70;24.60;;;;;;5072682;28;20071;-39
2022/04/27 07:13:38;;;;;;;17.90;12.20;;;14.70;24.60;;;;;;5072154;28;20056;-39
2022/04/27 07:16:05;;;;;;;15.85;13.35;;;14.70;24.80;;;;;;5071983;28;20126;-40
2022/04/27 07:18:32;;;;;;;17.00;12.52;;;14.70;24.80;;;;;;5072069;28;20077;-40
2022/04/27 07:20:58;;;;;;;15.77;12.95;;;14.70;24.80;;;;;;5071314;28;20020;-40
2022/04/27 07:23:24;;;;;;;17.08;12.73;;;14.80;25.00;;;;;;5072012;28;20027;-40
2022/04/27 07:25:49;;;;;;;15.57;13.80;;;14.80;25.00;;;;;;5071192;28;20044;-40
2022/04/27 07:28:15;;;;;;;14.35;12.82;;;14.80;25.00;;;;;;5071009;28;20032;-40
2022/04/27 07:30:41;;;;;;;15.68;13.10;;;14.80;25.10;;;;;;5072733;28;20029;-40
2022/04/27 07:33:07;;;;;;;20.52;14.18;;;14.80;25.20;;;;;;5070499;28;20163;-40
2022/04/27 07:35:33;;;;;;;18.05;14.82;;;14.90;25.20;;;;;;5052815;28;20132;-40
2022/04/27 07:37:58;;;;;;;17.92;14.60;;;14.90;25.30;;;;;;5052576;28;20100;-40
2022/04/27 07:40:24;;;;;;;18.08;14.50;;;14.90;25.40;;;;;;5052164;28;20029;-40
2022/04/27 07:42:49;;;;;;;16.88;14.57;;;14.90;25.60;;;;;;5052363;28;20025;-40
2022/04/27 07:45:15;;;;;;;18.40;14.95;;;15.00;25.60;;;;;;5068473;28;20090;-40
2022/04/27 07:47:44;;;;;;;20.38;14.02;;;15.10;25.00;;;;;;5088331;28;20074;-40
2022/04/27 07:50:13;;;;;;;19.02;14.68;;;15.10;25.70;;;;;;5085644;28;20036;-40
2022/04/27 07:52:38;;;;;;;17.60;14.55;;;15.00;25.50;;;;;;5072278;28;20025;-40
2022/04/27 07:55:05;;;;;;;19.15;15.68;;;15.10;25.40;;;;;;5070127;28;20075;-40
2022/04/27 07:57:31;;;;;;;18.92;14.43;;;15.10;25.60;;;;;;5071677;28;20040;-40
2022/04/27 07:59:58;;;;;;;16.38;14.48;;;15.20;25.60;;;;;;5070925;28;20031;-40
2022/04/27 08:02:24;;;;;;;17.75;13.60;;;15.20;25.60;;;;;;5071350;28;20375;-40
2022/04/27 08:04:49;;;;;;;16.10;14.10;;;15.20;25.80;;;;;;5071621;28;20048;-40
2022/04/27 08:07:15;;;;;;;19.33;12.73;;;15.30;25.90;;;;;;5072247;28;20040;-40
2022/04/27 08:09:41;;;;;;;16.08;12.77;;;15.30;25.80;;;;;;5071453;28;20029;-40
2022/04/27 08:12:07;;;;;;;15.82;11.75;;;15.40;25.80;;;;;;5072224;28;20024;-40
2022/04/27 08:14:33;;;;;;;17.50;13.07;;;15.40;25.50;;;;;;5067638;28;20031;-40
2022/04/27 08:17:01;;;;;;;17.98;13.57;;;15.50;25.40;;;;;;5068567;28;20078;-40
2022/04/27 08:19:27;;;;;;;16.90;13.73;;;15.50;25.20;;;;;;5068358;28;20029;-40
2022/04/27 08:21:54;;;;;;;15.10;12.77;;;15.50;25.40;;;;;;5066806;28;20454;-40
2022/04/27 08:24:21;;;;;;;18.45;13.88;;;15.60;25.60;;;;;;5068592;28;20028;-40
2022/04/27 08:26:47;;;;;;;16.15;14.45;;;15.60;25.60;;;;;;5068981;28;20087;-40
2022/04/27 08:29:13;;;;;;;17.33;14.40;;;15.70;25.90;;;;;;5068294;28;20035;-39
2022/04/27 08:31:38;;;;;;;19.80;15.50;;;15.70;25.80;;;;;;5068563;28;20045;-40
2022/04/27 08:34:04;;;;;;;17.95;15.23;;;15.80;25.60;;;;;;5066818;28;20044;-40
2022/04/27 08:36:30;;;;;;;19.35;14.38;;;15.80;25.60;;;;;;5070631;28;20036;-40
2022/04/27 08:38:57;;;;;;;19.08;15.48;;;15.80;25.60;;;;;;5071761;28;20123;-40
2022/04/27 08:41:24;;;;;;;22.63;15.57;;;15.90;25.70;;;;;;5069037;28;20029;-40
2022/04/27 08:43:49;;;;;;;17.02;14.45;;;15.90;26.00;;;;;;5072082;28;20028;-40
2022/04/27 08:46:15;;;;;;;19.13;14.45;;;16.00;25.90;;;;;;5069868;28;20086;-40
2022/04/27 08:48:48;;;;;;;21.80;17.13;;;16.00;26.10;;;;;;5070921;28;20021;-40
2022/04/27 08:51:14;;;;;;;18.15;15.88;;;16.00;26.40;;;;;;5070787;28;20028;-39
2022/04/27 08:53:41;;;;;;;24.55;17.23;;;16.00;26.70;;;;;;5070960;28;20032;-39
2022/04/27 08:56:07;;;;;;;24.95;18.83;;;16.00;26.50;;;;;;5069026;28;20020;-39
2022/04/27 08:58:33;;;;;;;21.73;17.73;;;16.10;26.40;;;;;;5071823;28;20069;-39
2022/04/27 09:01:01;;;;;;;20.73;15.77;;;16.20;26.50;;;;;;5069878;28;20028;-39
2022/04/27 09:03:29;;;;;;;20.67;16.48;;;16.20;26.00;;;;;;5069909;28;20020;-38
2022/04/27 09:06:06;;;;;;;23.70;16.83;;;16.40;26.20;;;;;;5069553;28;20177;-38
2022/04/27 09:08:41;;;;;;;22.30;15.93;;;16.50;25.60;;;;;;5070158;28;20471;-39
2022/04/27 09:11:13;;;;;;;;;;;16.60;25.90;;;;;;5068818;28;20512;-39
2022/04/27 09:13:40;;;;;;;21.40;14.43;;;16.80;24.90;;;;;;5071657;28;19912;-41
2022/04/27 09:16:07;;;;;;;17.58;15.27;;;16.90;25.30;;;;;;5069605;28;20132;-40
2022/04/27 09:21:58;;;;;;;17.33;14.15;;;17.10;23.60;;;;;;5070478;28;20134;-41
2022/04/27 09:24:24;;;;;;;24.13;16.40;;;17.00;23.60;;;;;;5070414;28;20106;-41
2022/04/27 09:27:11;;;;;;;19.02;16.08;;;17.00;24.90;;;;;;5069055;28;20032;-41
2022/04/27 09:29:37;;;;;;;16.65;14.25;;;16.90;24.10;;;;;;5066974;28;20393;-40
2022/04/27 09:32:04;;;;;;;22.45;14.57;;;17.00;24.70;;;;;;5070644;28;20028;-40
2022/04/27 09:34:42;;;;;;;16.65;13.82;;;17.10;24.30;;;;;;5070831;28;20045;-41
2022/04/27 09:37:14;;;;;;;17.23;13.93;;;17.30;24.30;;;;;;5068426;28;20040;-40
2022/04/27 09:39:40;;;;;;;17.70;12.85;;;17.30;23.20;;;;;;5066240;28;20029;-41
2022/04/27 09:42:10;;;;;;;20.42;14.73;;;17.30;23.70;;;;;;5071249;28;20032;-41
2022/04/27 09:44:37;;;;;;;17.92;14.18;;;17.30;23.50;;;;;;5072276;28;20112;-40
2022/04/27 09:47:04;;;;;;;19.55;13.50;;;17.30;23.50;;;;;;5072699;28;20025;-41
2022/04/27 09:49:31;;;;;;;21.13;13.25;;;17.20;22.80;;;;;;5074392;28;20017;-40
2022/04/27 09:52:01;;;;;;;13.77;12.35;;;17.20;22.30;;;;;;5073317;28;20031;-41
2022/04/27 09:54:29;;;;;;;13.82;12.43;;;17.20;20.40;;;;;;5070916;28;20090;-40
2022/04/27 09:57:00;;;;;;;16.70;14.38;;;17.20;21.40;;;;;;5073317;28;20045;-41
2022/04/27 09:59:31;;;;;;;16.90;14.15;;;17.20;20.70;;;;;;5074040;28;20029;-42
2022/04/27 10:02:08;;;;;;;17.13;12.73;;;17.30;21.20;;;;;;5072969;28;20103;-42
2022/04/27 10:04:35;;;;;;;16.88;14.27;;;17.50;20.90;;;;;;5073913;28;20032;-41
2022/04/27 10:07:03;;;;;;;20.40;13.50;;;17.70;21.10;;;;;;5073097;28;20021;-42
2022/04/27 10:09:29;;;;;;;15.93;12.82;;;17.60;21.60;;;;;;5073963;28;20599;-40
2022/04/27 10:12:03;;;;;;;18.88;14.75;;;17.70;21.70;;;;;;5072009;28;20031;-40
2022/04/27 10:14:29;;;;;;;14.07;11.67;;;18.00;20.40;;;;;;5072659;28;20028;-41
2022/04/27 10:16:56;;;;;;;16.33;13.23;;;18.00;21.20;;;;;;5071899;28;20106;-41
2022/04/27 10:19:22;;;;;;;18.70;13.27;;;18.10;21.00;;;;;;5071977;28;20415;-41
2022/04/27 10:22:00;;;;;;;14.00;12.50;;;18.10;20.30;;;;;;5072843;28;20028;-42
2022/04/27 10:24:35;;;;;;;16.33;13.32;;;18.10;20.20;;;;;;5071221;28;20351;-40
2022/04/27 10:27:19;;;;;;;16.83;13.68;;;18.20;20.10;;;;;;5072092;28;20111;-40
2022/04/27 10:29:51;;;;;;;;;;;18.10;19.40;;;;;;5070954;28;20029;-39
2022/04/27 10:32:42;;;;;;;15.07;13.02;;;18.00;18.10;;;;;;5069209;28;19991;-40
2022/04/27 10:35:21;;;;;;;13.20;11.32;;;18.20;18.00;;;;;;5072776;28;20124;-41
2022/04/27 10:37:58;;;;;;;16.67;13.10;;;18.30;17.50;;;;;;5070475;28;20484;-41
2022/04/27 10:40:37;;;;;;;13.65;11.95;;;18.30;17.40;;;;;;5072841;28;20048;-40
2022/04/27 10:43:02;;;;;;;20.10;13.45;;;18.50;17.40;;;;;;5069084;28;20393;-40
2022/04/27 10:45:28;;;;;;;13.82;12.25;;;18.40;18.80;;;;;;5072635;28;20032;-42
2022/04/27 10:47:54;;;;;;;17.83;12.85;;;18.50;18.20;;;;;;5071999;28;20033;-42
2022/04/27 10:50:21;;;;;;;17.02;12.63;;;18.50;17.30;;;;;;5071316;28;20052;-41
2022/04/27 10:52:52;;;;;;;13.95;12.50;;;18.70;17.90;;;;;;5071261;28;20056;-41
2022/04/27 10:55:40;;;;;;;15.73;13.20;;;18.60;17.60;;;;;;5067699;28;20390;-41
2022/04/27 10:58:14;;;;;;;13.18;11.65;;;18.60;15.40;;;;;;5069889;28;20024;-41
2022/04/27 11:00:58;;;;;;;;;;;18.70;14.80;;;;;;5072786;28;20488;-42
2022/04/27 11:03:35;;;;;;;14.45;12.35;;;18.70;15.20;;;;;;5071397;28;20330;-42
2022/04/27 11:06:07;;;;;;;18.50;13.55;;;18.80;13.60;;;;;;5072183;28;20036;-43
2022/04/27 11:08:32;;;;;;;16.27;12.00;;;19.00;15.10;;;;;;5067270;28;20024;-40
2022/04/27 11:11:06;;;;;;;15.10;13.52;;;19.00;15.90;;;;;;5052493;28;20033;-41
2022/04/27 11:13:33;;;;;;;18.58;14.07;;;19.20;15.50;;;;;;5067452;28;20029;-41
2022/04/27 11:16:13;;;;;;;15.43;13.80;;;19.20;14.30;;;;;;5052396;28;20037;-41
2022/04/27 11:18:49;;;;;;;13.80;11.55;;;19.30;14.10;;;;;;5052388;28;20204;-41
2022/04/27 11:21:18;;;;;;;14.32;12.95;;;19.40;14.20;;;;;;5052935;28;20033;-41
2022/04/27 11:23:44;;;;;;;15.68;14.15;;;19.40;14.20;;;;;;5072506;28;20020;-41
2022/04/27 11:26:10;;;;;;;13.88;12.07;;;19.50;14.80;;;;;;5072127;28;20078;-41
2022/04/27 11:28:41;;;;;;;14.65;12.43;;;19.50;14.60;;;;;;5072419;28;20031;-41
2022/04/27 11:31:07;;;;;;;14.68;12.93;;;19.60;14.30;;;;;;5072539;28;20052;-41
2022/04/27 11:33:39;;;;;;;15.18;12.77;;;19.80;14.40;;;;;;5069947;28;20044;-41
2022/04/27 11:36:04;;;;;;;15.48;13.48;;;19.80;14.40;;;;;;5072481;28;20120;-41
2022/04/27 11:38:37;;;;;;;16.50;14.20;;;19.90;13.70;;;;;;5071400;28;20531;-41
2022/04/27 11:41:20;;;;;;;16.05;13.60;;;19.90;12.50;;;;;;5052271;28;20036;-40
2022/04/27 11:43:47;;;;;;;16.05;12.85;;;20.00;10.50;;;;;;5070858;28;20037;-40
2022/04/27 11:46:13;;;;;;;14.23;12.82;;;20.30;12.20;;;;;;5068947;28;20047;-41
2022/04/27 11:48:39;;;;;;;18.98;14.00;;;20.40;11.80;;;;;;5071613;28;20119;-41
2022/04/27 11:51:08;;;;;;;15.43;13.77;;;20.70;11.60;;;;;;5072637;28;20104;-42
2022/04/27 11:53:45;;;;;;;15.68;14.07;;;21.30;10.60;;;;;;5071532;28;20021;-41
2022/04/27 11:56:11;;;;;;;15.38;13.32;;;22.80;6.40;;;;;;5071170;28;20028;-41
2022/04/27 11:58:37;;;;;;;14.65;13.15;;;23.60;5.70;;;;;;5071450;28;20028;-42
2022/04/27 12:01:02;;;;;;;18.75;15.27;;;23.50;7.10;;;;;;5071915;28;20021;-42
2022/04/27 12:03:30;;;;;;;15.15;12.32;;;22.60;7.30;;;;;;5070483;28;20091;-40
2022/04/27 12:05:56;;;;;;;13.85;12.52;;;22.60;7.60;;;;;;5071076;28;20032;-41
2022/04/27 12:08:23;;;;;;;15.75;14.15;;;22.70;8.70;;;;;;5071989;28;20035;-41
2022/04/27 12:10:49;;;;;;;15.32;13.93;;;22.70;6.80;;;;;;5076062;28;20070;-41
2022/04/27 12:13:17;;;;;;;13.82;12.52;;;22.90;7.50;;;;;;5075485;28;20039;-42
2022/04/27 12:15:47;;;;;;;15.00;12.75;;;23.40;6.50;;;;;;5076198;28;20373;-41
2022/04/27 12:18:16;;;;;;;15.05;13.20;;;24.40;2.60;;;;;;5075392;28;20393;-41
2022/04/27 12:20:43;;;;;;;15.23;13.63;;;24.80;2.60;;;;;;5076142;28;20358;-42
2022/04/27 12:23:14;;;;;;;14.45;13.18;;;24.90;2.90;;;;;;5075072;28;20028;-41
2022/04/27 12:25:41;;;;;;;15.65;13.65;;;24.80;2.80;;;;;;5091121;28;20131;-41
2022/04/27 12:28:12;;;;;;;13.85;12.48;;;24.70;1.50;;;;;;5074977;28;20020;-42
2022/04/27 12:30:42;;;;;;;14.93;13.43;;;25.00;1.40;;;;;;5075485;28;20032;-42
2022/04/27 12:33:09;;;;;;;14.48;13.20;;;25.00;1.00;;;;;;5073265;28;20389;-41
2022/04/27 12:38:20;;;;;;;15.13;12.13;;;26.70;1.00;;;;;;5075190;28;20085;-42
2022/04/27 12:40:45;;;;;;;13.25;12.15;;;28.00;1.00;;;;;;5073600;28;20024;-41
2022/04/27 12:43:16;;;;;;;12.60;11.50;;;29.30;1.00;;;;;;5073162;28;20032;-43
2022/04/27 12:46:03;;;;;;;13.32;12.15;;;29.90;1.00;;;;;;5073660;28;20074;-41
2022/04/27 12:48:31;;;;;;;13.32;12.00;;;29.80;1.00;;;;;;5067468;28;20082;-41
2022/04/27 12:50:58;;;;;;;11.98;10.63;;;29.40;1.00;;;;;;5075867;28;20418;-42
2022/04/27 12:53:24;;;;;;;12.68;11.50;;;28.80;1.00;;;;;;5074589;28;20382;-41